Time;durP1;ratioP1;P1;durP2;ratioP2;P2;SDS_P1;SDS_P2;PMS_P1;PMS_P2;Temp;Humidity;BMP_temperature;BMP_pressure;BME280_temperature;BME280_humidity;BME280_pressure;Samples;Min_cycle;Max_cycle;Signal;HPM_P1;HPM_P2
2022/10/02 00:01:55;;;;;;;;;;;;;;;22.64;48.05;100250.69;104604;1308;74159;-83
2022/10/02 00:04:41;;;;;;;;;;;;;;;22.64;48.02;100247.11;104497;1309;76569;-82
2022/10/02 00:07:08;;;;;;;;;;;;;;;22.64;47.99;100234.93;104622;1307;61942;-82
2022/10/02 00:09:37;;;;;;;;;;;;;;;22.64;48.12;100229.90;104514;1308;62061;-83
2022/10/02 00:12:07;;;;;;;;;;;;;;;22.64;48.13;100218.40;104515;1308;72768;-84
2022/10/02 00:14:34;;;;;;;;;;;;;;;22.64;48.15;100209.45;104491;1309;75504;-82
2022/10/02 00:17:00;;;;;;;;;;;;;;;22.64;48.23;100199.03;104526;1309;62096;-84
2022/10/02 00:19:25;;;;;;;;;;;;;;;22.64;48.17;100202.29;104461;1308;62074;-85
2022/10/02 00:21:51;;;;;;;;;;;;;;;22.64;48.21;100201.92;104524;1309;62077;-83
2022/10/02 00:24:18;;;;;;;;;;;;;;;22.64;48.24;100192.59;104622;1309;62079;-83
2022/10/02 00:26:47;;;;;;;;;;;;;;;22.64;48.26;100189.94;104492;1309;62033;-84
2022/10/02 00:29:23;;;;;;;;;;;;;;;22.63;48.29;100188.89;104392;1309;61984;-81
2022/10/02 00:32:00;;;;;;;;;;;;;;;22.63;48.36;100179.38;104618;1309;72878;-83
2022/10/02 00:34:29;;;;;;;;;;;;;;;22.63;48.39;100176.52;104609;1308;75608;-85
2022/10/02 00:36:55;;;;;;;;;;;;;;;22.63;48.43;100161.48;104632;1309;61985;-82
2022/10/02 00:39:23;;;;;;;;;;;;;;;22.63;48.51;100148.02;104612;1309;63331;-82
2022/10/02 00:41:58;;;;;;;;;;;;;;;22.62;48.50;100136.05;104627;1309;72614;-84
2022/10/02 00:44:32;;;;;;;;;;;;;;;22.63;48.37;100138.74;104617;1308;75547;-84
2022/10/02 00:47:08;;;;;;;;;;;;;;;22.63;48.47;100128.86;104519;1309;62147;-82
2022/10/02 00:49:46;;;;;;;;;;;;;;;22.63;48.52;100126.52;104541;1309;62508;-83
2022/10/02 00:52:23;;;;;;;;;;;;;;;22.62;48.59;100126.36;104536;1309;72968;-83
2022/10/02 00:54:51;;;;;;;;;;;;;;;22.63;48.56;100116.48;104511;1308;75536;-84
2022/10/02 00:57:33;;;;;;;;;;;;;;;22.63;48.61;100111.48;104618;1309;62064;-83
2022/10/02 01:00:04;;;;;;;;;;;;;;;22.63;48.60;100109.86;104509;1309;62110;-83
2022/10/02 01:03:03;;;;;;;;;;;;;;;22.63;48.63;100118.44;104482;1309;72860;-84
2022/10/02 01:05:29;;;;;;;;;;;;;;;22.63;48.67;100128.85;104131;1315;74472;-82
2022/10/02 01:07:54;;;;;;;;;;;;;;;22.63;48.66;100126.67;104260;1315;62546;-81
2022/10/02 01:10:26;;;;;;;;;;;;;;;22.63;48.76;100123.95;104288;1315;62224;-83
2022/10/02 01:12:52;;;;;;;;;;;;;;;22.63;48.79;100129.88;104203;1315;73078;-85
2022/10/02 01:15:19;;;;;;;;;;;;;;;22.63;48.82;100124.17;104290;1312;62178;-86
2022/10/02 01:17:45;;;;;;;;;;;;;;;22.63;48.83;100106.27;104233;1315;61972;-82
2022/10/02 01:20:20;;;;;;;;;;;;;;;22.63;48.87;100104.80;104247;1315;62134;-82
2022/10/02 01:22:52;;;;;;;;;;;;;;;22.63;48.81;100095.84;104241;1315;72321;-84
2022/10/02 01:25:18;;;;;;;;;;;;;;;22.63;48.83;100094.09;104190;1315;77100;-83
2022/10/02 01:27:43;;;;;;;;;;;;;;;22.63;48.92;100095.84;104089;1314;62117;-82
2022/10/02 01:30:10;;;;;;;;;;;;;;;22.63;48.88;100094.06;104138;1314;62141;-84
2022/10/02 01:32:37;;;;;;;;;;;;;;;22.63;48.95;100103.23;104148;1315;62087;-82
2022/10/02 01:35:05;;;;;;;;;;;;;;;22.62;48.94;100112.58;104298;1314;62813;-83
2022/10/02 01:37:31;;;;;;;;;;;;;;;22.62;48.96;100112.91;104125;1315;62095;-83
2022/10/02 01:39:58;;;;;;;;;;;;;;;22.62;48.91;100116.51;104306;1315;62048;-84
2022/10/02 01:42:24;;;;;;;;;;;;;;;22.63;48.97;100117.00;104500;1309;73816;-80
2022/10/02 01:44:49;;;;;;;;;;;;;;;22.62;48.96;100125.29;104624;1309;59870;-82
2022/10/02 01:47:19;;;;;;;;;;;;;;;22.63;48.98;100129.02;104567;1308;62085;-82
2022/10/02 01:49:44;;;;;;;;;;;;;;;22.63;49.01;100140.70;104642;1309;62002;-83
2022/10/02 01:52:31;;;;;;;;;;;;;;;22.63;48.98;100153.21;104545;1309;62123;-83
2022/10/02 01:55:06;;;;;;;;;;;;;;;22.63;49.09;100156.44;104512;1308;76649;-86
2022/10/02 01:57:32;;;;;;;;;;;;;;;22.63;49.08;100155.02;104439;1308;62000;-83
2022/10/02 02:00:07;;;;;;;;;;;;;;;22.63;49.07;100157.88;104648;1308;62050;-88
2022/10/02 02:02:32;;;;;;;;;;;;;;;22.63;49.04;100161.95;104532;1309;73882;-82
2022/10/02 02:04:58;;;;;;;;;;;;;;;22.63;49.12;100160.42;104605;1309;62112;-83
2022/10/02 02:07:29;;;;;;;;;;;;;;;22.63;49.10;100162.21;104595;1309;62042;-83
2022/10/02 02:10:24;;;;;;;;;;;;;;;22.63;49.16;100156.63;104640;1309;62758;-84
2022/10/02 02:12:55;;;;;;;;;;;;;;;22.63;49.20;100154.99;104274;1315;73100;-82
2022/10/02 02:15:20;;;;;;;;;;;;;;;22.63;49.18;100152.51;104122;1315;76785;-83
2022/10/02 02:17:50;;;;;;;;;;;;;;;22.63;49.19;100147.47;104288;1315;62214;-84
2022/10/02 02:20:21;;;;;;;;;;;;;;;22.63;49.11;100139.96;104228;1315;62091;-83
2022/10/02 02:22:48;;;;;;;;;;;;;;;22.63;49.26;100135.31;104210;1315;72672;-84
2022/10/02 02:25:27;;;;;;;;;;;;;;;22.63;49.23;100132.09;104152;1314;75559;-83
2022/10/02 02:27:54;;;;;;;;;;;;;;;22.62;49.19;100137.13;104146;1316;62135;-83
2022/10/02 02:30:20;;;;;;;;;;;;;;;22.62;49.10;100133.92;103908;1316;61998;-84
2022/10/02 02:32:47;;;;;;;;;;;;;;;22.62;49.15;100135.90;103947;1316;62128;-86
2022/10/02 02:35:18;;;;;;;;;;;;;;;22.62;49.19;100131.94;104135;1316;75726;-81
2022/10/02 02:37:44;;;;;;;;;;;;;;;22.62;49.19;100124.60;104109;1314;62490;-82
2022/10/02 02:40:14;;;;;;;;;;;;;;;22.62;49.12;100121.04;103955;1317;62124;-83
2022/10/02 02:42:40;;;;;;;;;;;;;;;22.62;49.23;100113.84;104075;1314;73954;-85
2022/10/02 02:45:09;;;;;;;;;;;;;;;22.62;49.24;100107.05;104117;1316;76849;-82
2022/10/02 02:47:39;;;;;;;;;;;;;;;22.62;49.21;100105.24;104109;1314;62142;-84
2022/10/02 02:50:13;;;;;;;;;;;;;;;22.62;49.25;100109.02;104205;1311;62046;-81
2022/10/02 02:52:40;;;;;;;;;;;;;;;22.61;49.25;100108.52;104432;1310;73735;-82
2022/10/02 02:55:11;;;;;;;;;;;;;;;22.61;49.15;100106.70;104492;1309;75584;-82
2022/10/02 02:57:39;;;;;;;;;;;;;;;22.61;49.38;100104.74;104469;1311;62407;-83
2022/10/02 03:00:06;;;;;;;;;;;;;;;22.62;49.28;100103.65;104491;1309;61958;-84
2022/10/02 03:02:31;;;;;;;;;;;;;;;22.62;49.38;100098.27;104474;1309;62085;-83
2022/10/02 03:04:57;;;;;;;;;;;;;;;22.62;49.30;100098.61;104453;1310;62094;-85
2022/10/02 03:07:22;;;;;;;;;;;;;;;22.62;49.28;100095.04;104466;1311;62088;-85
2022/10/02 03:10:05;;;;;;;;;;;;;;;22.61;49.17;100097.59;104519;1309;62078;-85
2022/10/02 03:12:32;;;;;;;;;;;;;;;22.62;49.26;100097.73;104467;1309;72805;-84
2022/10/02 03:15:13;;;;;;;;;;;;;;;22.62;49.33;100098.46;104466;1309;76709;-85
2022/10/02 03:17:43;;;;;;;;;;;;;;;22.61;49.31;100105.82;104471;1309;62413;-84
2022/10/02 03:20:21;;;;;;;;;;;;;;;22.62;49.31;100105.80;104479;1309;62062;-83
2022/10/02 03:23:05;;;;;;;;;;;;;;;22.62;49.25;100105.27;104465;1309;73886;-83
2022/10/02 03:25:51;;;;;;;;;;;;;;;22.61;49.41;100104.95;104265;1310;73295;-83
2022/10/02 03:28:17;;;;;;;;;;;;;;;22.61;49.42;100110.30;104409;1309;62297;-82
2022/10/02 03:30:43;;;;;;;;;;;;;;;22.62;49.42;100115.86;104453;1311;62069;-83
2022/10/02 03:33:09;;;;;;;;;;;;;;;22.62;49.40;100121.59;104427;1311;62873;-83
2022/10/02 03:35:35;;;;;;;;;;;;;;;22.62;49.39;100120.31;104426;1310;61960;-85
2022/10/02 03:38:04;;;;;;;;;;;;;;;22.62;49.41;100121.39;104469;1311;62171;-83
2022/10/02 03:40:30;;;;;;;;;;;;;;;22.61;49.38;100117.30;104446;1310;62200;-83
2022/10/02 03:42:57;;;;;;;;;;;;;;;22.62;49.33;100119.27;104442;1311;62104;-83
2022/10/02 03:45:23;;;;;;;;;;;;;;;22.61;49.42;100121.44;104415;1311;62054;-83
2022/10/02 03:47:49;;;;;;;;;;;;;;;22.61;49.44;100123.77;104426;1311;62102;-87
2022/10/02 03:50:14;;;;;;;;;;;;;;;22.61;49.40;100128.08;104444;1311;62068;-82
2022/10/02 03:52:40;;;;;;;;;;;;;;;22.61;49.53;100124.52;104435;1310;61977;-86
2022/10/02 03:55:28;;;;;;;;;;;;;;;22.61;49.40;100120.02;104453;1311;62232;-83
2022/10/02 03:57:54;;;;;;;;;;;;;;;22.61;49.43;100125.77;104420;1311;62105;-80
2022/10/02 04:00:31;;;;;;;;;;;;;;;22.61;49.52;100125.42;104456;1311;62078;-82
2022/10/02 04:02:58;;;;;;;;;;;;;;;22.61;49.52;100133.65;104422;1310;72897;-83
2022/10/02 04:05:34;;;;;;;;;;;;;;;22.60;49.61;100125.82;104433;1310;76926;-84
2022/10/02 04:08:02;;;;;;;;;;;;;;;22.61;49.50;100124.14;104336;1310;62217;-84
2022/10/02 04:10:28;;;;;;;;;;;;;;;22.60;49.54;100128.64;104482;1310;62002;-83
2022/10/02 04:12:56;;;;;;;;;;;;;;;22.61;49.60;100124.48;104519;1309;62149;-83
2022/10/02 04:15:27;;;;;;;;;;;;;;;22.60;49.49;100123.10;104597;1311;76081;-83
2022/10/02 04:17:52;;;;;;;;;;;;;;;22.60;49.50;100117.54;104508;1310;62829;-83
2022/10/02 04:20:22;;;;;;;;;;;;;;;22.61;49.49;100121.25;104501;1310;62102;-84
2022/10/02 04:22:49;;;;;;;;;;;;;;;22.61;49.63;100124.14;104441;1311;72845;-82
2022/10/02 04:25:16;;;;;;;;;;;;;;;22.60;49.59;100132.60;104464;1308;76726;-86
2022/10/02 04:27:54;;;;;;;;;;;;;;;22.61;49.62;100130.96;104537;1309;62088;-84
2022/10/02 04:30:20;;;;;;;;;;;;;;;22.61;49.58;100128.82;104624;1309;61960;-83
2022/10/02 04:32:46;;;;;;;;;;;;;;;22.60;49.65;100131.36;104532;1309;62161;-85
2022/10/02 04:35:19;;;;;;;;;;;;;;;22.60;49.62;100132.64;104503;1309;62155;-83
2022/10/02 04:38:20;;;;;;;;;;;;;;;22.61;49.64;100139.95;104509;1309;62068;-83
2022/10/02 04:41:04;;;;;;;;;;;;;;;22.60;49.62;100130.66;104208;1314;61950;-84
2022/10/02 04:43:37;;;;;;;;;;;;;;;22.60;49.71;100135.67;104269;1315;73725;-84
2022/10/02 04:46:22;;;;;;;;;;;;;;;22.60;49.77;100133.86;104199;1315;77270;-82
2022/10/02 04:49:04;;;;;;;;;;;;;;;22.60;49.70;100132.61;104229;1314;61974;-84
2022/10/02 04:51:50;;;;;;;;;;;;;;;22.60;49.70;100131.00;104258;1315;62113;-83
2022/10/02 04:54:16;;;;;;;;;;;;;;;22.60;49.69;100129.55;104210;1313;72842;-84
2022/10/02 04:57:04;;;;;;;;;;;;;;;22.60;49.60;100132.24;104235;1315;62257;-83
2022/10/02 04:59:29;;;;;;;;;;;;;;;22.61;49.69;100144.41;103570;1319;63295;-84
2022/10/02 05:02:07;;;;;;;;;;;;;;;22.61;49.67;100143.69;103595;1319;59532;-83
2022/10/02 05:04:51;;;;;;;;;;;;;;;22.61;49.72;100140.13;103561;1319;73059;-84
2022/10/02 05:07:35;;;;;;;;;;;;;;;22.61;49.70;100139.37;103543;1319;76376;-82
2022/10/02 05:10:12;;;;;;;;;;;;;;;22.61;49.69;100146.91;103516;1319;61998;-84
2022/10/02 05:12:38;;;;;;;;;;;;;;;22.61;49.62;100149.61;103599;1319;62268;-82
2022/10/02 05:15:13;;;;;;;;;;;;;;;22.62;49.70;100154.05;103733;1315;62094;-85
2022/10/02 05:17:53;;;;;;;;;;;;;;;22.61;49.68;100153.00;104233;1315;76431;-82
2022/10/02 05:20:39;;;;;;;;;;;;;;;22.61;49.73;100155.35;104241;1315;61951;-85
2022/10/02 05:23:17;;;;;;;;;;;;;;;22.61;49.75;100161.61;103365;1322;62850;-82
2022/10/02 05:25:52;;;;;;;;;;;;;;;22.61;49.73;100170.76;103364;1322;72712;-83
2022/10/02 05:28:29;;;;;;;;;;;;;;;22.61;49.78;100175.23;103361;1323;76022;-83
2022/10/02 05:31:02;;;;;;;;;;;;;;;22.62;49.71;100177.73;103292;1323;61969;-83
2022/10/02 05:33:31;;;;;;;;;;;;;;;22.62;49.65;100178.40;103381;1323;61995;-86
2022/10/02 05:36:06;;;;;;;;;;;;;;;22.61;49.68;100177.92;103342;1321;72875;-83
2022/10/02 05:39:04;;;;;;;;;;;;;;;22.61;49.74;100184.02;103838;1317;77223;-82
2022/10/02 05:41:41;;;;;;;;;;;;;;;22.62;49.54;100189.91;102976;1326;62691;-83
2022/10/02 05:44:09;;;;;;;;;;;;;;;22.62;49.68;100192.40;102724;1326;62124;-84
2022/10/02 05:46:53;;;;;;;;;;;;;;;22.62;49.81;100198.88;102734;1326;71699;-85
2022/10/02 05:49:27;;;;;;;;;;;;;;;22.62;49.74;100205.33;102974;1324;75596;-82
2022/10/02 05:52:00;;;;;;;;;;;;;;;22.62;49.66;100201.55;102984;1325;62100;-87
2022/10/02 05:54:34;;;;;;;;;;;;;;;22.63;49.66;100208.32;103014;1325;61951;-83
2022/10/02 05:57:20;;;;;;;;;;;;;;;22.62;49.63;100213.58;103009;1325;74099;-83
2022/10/02 06:00:12;;;;;;;;;;;;;;;22.62;49.76;100213.89;102928;1317;77007;-83
2022/10/02 06:02:56;;;;;;;;;;;;;;;22.63;49.86;100217.80;103182;1322;62168;-82
2022/10/02 06:05:39;;;;;;;;;;;;;;;22.63;49.86;100217.64;103209;1323;62090;-84
2022/10/02 06:08:04;;;;;;;;;;;;;;;22.62;49.70;100219.10;103367;1322;72157;-84
2022/10/02 06:10:33;;;;;;;;;;;;;;;22.63;49.65;100226.95;103373;1323;62223;-84
2022/10/02 06:13:10;;;;;;;;;;;;;;;22.63;49.61;100234.63;103377;1320;61992;-84
2022/10/02 06:15:52;;;;;;;;;;;;;;;22.63;49.63;100233.91;103364;1322;62089;-83
2022/10/02 06:18:22;;;;;;;;;;;;;;;22.63;49.73;100233.91;103957;1318;72716;-84
2022/10/02 06:20:51;;;;;;;;;;;;;;;22.63;49.73;100233.89;104122;1316;75423;-82
2022/10/02 06:23:39;;;;;;;;;;;;;;;22.63;49.68;100229.41;104208;1314;62176;-82
2022/10/02 06:26:23;;;;;;;;;;;;;;;22.63;49.72;100235.50;104198;1314;61944;-82
2022/10/02 06:28:49;;;;;;;;;;;;;;;22.64;49.75;100241.02;104220;1314;73005;-83
2022/10/02 06:31:17;;;;;;;;;;;;;;;22.64;49.74;100245.49;104164;1316;62202;-82
2022/10/02 06:33:43;;;;;;;;;;;;;;;22.64;49.73;100251.91;104262;1315;61997;-86
2022/10/02 06:36:15;;;;;;;;;;;;;;;22.65;49.77;100257.27;104196;1314;63254;-82
2022/10/02 06:38:59;;;;;;;;;;;;;;;22.65;49.75;100257.27;103904;1317;72835;-82
2022/10/02 06:41:28;;;;;;;;;;;;;;;22.65;49.79;100251.66;104457;1309;75594;-84
2022/10/02 06:43:53;;;;;;;;;;;;;;;22.65;49.75;100251.46;104592;1309;62085;-80
2022/10/02 06:46:22;;;;;;;;;;;;;;;22.66;49.79;100257.32;104726;1308;62235;-84
2022/10/02 06:48:52;;;;;;;;;;;;;;;22.66;49.85;100251.45;104627;1309;73897;-81
2022/10/02 06:51:20;;;;;;;;;;;;;;;22.66;49.87;100252.09;104633;1309;76626;-85
2022/10/02 06:54:01;;;;;;;;;;;;;;;22.66;49.84;100256.02;104640;1309;61986;-82
2022/10/02 06:56:56;;;;;;;;;;;;;;;22.67;49.77;100260.14;104519;1308;61938;-82
2022/10/02 06:59:22;;;;;;;;;;;;;;;22.67;50.01;100257.25;104319;1312;72813;-85
2022/10/02 07:01:53;;;;;;;;;;;;;;;22.67;49.93;100253.98;104461;1309;62184;-83
2022/10/02 07:04:31;;;;;;;;;;;;;;;22.68;49.97;100270.27;104543;1309;62161;-87
2022/10/02 07:07:08;;;;;;;;;;;;;;;22.68;50.09;100275.11;104521;1309;61966;-82
2022/10/02 07:09:36;;;;;;;;;;;;;;;22.69;50.13;100275.36;104561;1309;72959;-82
2022/10/02 07:12:05;;;;;;;;;;;;;;;22.69;50.05;100271.05;104501;1310;75747;-84
2022/10/02 07:14:30;;;;;;;;;;;;;;;22.69;50.16;100271.56;104641;1309;62073;-83
2022/10/02 07:17:15;;;;;;;;;;;;;;;22.70;50.15;100277.59;104545;1310;62105;-88
2022/10/02 07:19:44;;;;;;;;;;;;;;;22.70;50.16;100279.35;104531;1308;73848;-82
2022/10/02 07:22:28;;;;;;;;;;;;;;;22.71;50.21;100283.64;104607;1309;75746;-83
2022/10/02 07:25:09;;;;;;;;;;;;;;;22.71;50.11;100284.68;104552;1308;62022;-83
2022/10/02 07:27:40;;;;;;;;;;;;;;;22.72;50.27;100290.16;104633;1309;61966;-83
2022/10/02 07:30:13;;;;;;;;;;;;;;;22.73;50.32;100297.46;104609;1309;73240;-83
2022/10/02 07:32:42;;;;;;;;;;;;;;;22.73;50.43;100300.67;104618;1309;76664;-83
2022/10/02 07:35:22;;;;;;;;;;;;;;;22.73;50.33;100301.15;104627;1309;61932;-82
2022/10/02 07:38:08;;;;;;;;;;;;;;;22.74;50.29;100303.41;104636;1309;61882;-83
2022/10/02 07:40:53;;;;;;;;;;;;;;;22.74;50.32;100303.56;104563;1309;73926;-82
2022/10/02 07:43:37;;;;;;;;;;;;;;;22.75;50.46;100307.84;104535;1309;77070;-84
2022/10/02 07:46:21;;;;;;;;;;;;;;;22.76;50.38;100316.39;104614;1309;61989;-84
2022/10/02 07:49:05;;;;;;;;;;;;;;;22.76;50.45;100314.20;104539;1308;61919;-82
2022/10/02 07:51:46;;;;;;;;;;;;;;;22.77;50.40;100323.30;104488;1309;74685;-83
2022/10/02 07:54:21;;;;;;;;;;;;;;;22.77;50.39;100323.45;104617;1309;76461;-85
2022/10/02 07:56:46;;;;;;;;;;;;;;;22.78;50.43;100317.13;104622;1309;61838;-85
2022/10/02 07:59:14;;;;;;;;;;;;;;;22.78;50.45;100320.73;104441;1308;62107;-86
2022/10/02 08:01:40;;;;;;;;;;;;;;;22.78;50.40;100323.07;104527;1308;73775;-83
2022/10/02 08:04:09;;;;;;;;;;;;;;;22.78;50.39;100323.77;104531;1308;62198;-83
2022/10/02 08:06:35;;;;;;;;;;;;;;;22.78;50.47;100330.41;104520;1309;62014;-83
2022/10/02 08:09:07;;;;;;;;;;;;;;;22.78;50.44;100330.91;104441;1310;61938;-83
2022/10/02 08:11:43;;;;;;;;;;;;;;;22.78;50.47;100337.04;104480;1308;73885;-83
2022/10/02 08:14:14;;;;;;;;;;;;;;;22.78;50.47;100338.79;104308;1309;76967;-84
2022/10/02 08:16:41;;;;;;;;;;;;;;;22.78;50.47;100344.72;104504;1308;62050;-82
2022/10/02 08:19:10;;;;;;;;;;;;;;;22.79;50.47;100339.11;104501;1308;63228;-83
2022/10/02 08:21:38;;;;;;;;;;;;;;;22.79;50.50;100341.46;104423;1308;72817;-83
2022/10/02 08:24:06;;;;;;;;;;;;;;;22.79;50.55;100337.10;104406;1310;75743;-83
2022/10/02 08:26:31;;;;;;;;;;;;;;;22.79;50.54;100344.48;104418;1311;63302;-83
2022/10/02 08:29:17;;;;;;;;;;;;;;;22.79;50.53;100345.18;104216;1312;62204;-82
2022/10/02 08:31:42;;;;;;;;;;;;;;;22.79;50.44;100349.66;104262;1310;73907;-81
2022/10/02 08:34:11;;;;;;;;;;;;;;;22.80;50.55;100350.70;104134;1311;62209;-82
2022/10/02 08:36:42;;;;;;;;;;;;;;;22.80;50.58;100349.96;104386;1311;62112;-83
2022/10/02 08:39:37;;;;;;;;;;;;;;;22.80;50.51;100350.84;104407;1311;62101;-83
2022/10/02 08:42:21;;;;;;;;;;;;;;;22.80;50.70;100354.42;103695;1319;72798;-84
2022/10/02 08:44:52;;;;;;;;;;;;;;;22.80;50.56;100350.82;103689;1316;75530;-82
2022/10/02 08:47:27;;;;;;;;;;;;;;;22.81;50.51;100355.60;103857;1317;62125;-83
2022/10/02 08:50:00;;;;;;;;;;;;;;;22.80;50.42;100349.00;103883;1317;62005;-82
2022/10/02 08:52:45;;;;;;;;;;;;;;;22.81;50.38;100354.66;103841;1317;73182;-82
2022/10/02 08:55:29;;;;;;;;;;;;;;;22.81;50.41;100355.29;103861;1317;75638;-85
2022/10/02 08:58:13;;;;;;;;;;;;;;;22.81;50.44;100355.64;103660;1318;61978;-84
2022/10/02 09:01:05;;;;;;;;;;;;;;;22.81;50.45;100351.30;103838;1317;62152;-83
2022/10/02 09:03:30;;;;;;;;;;;;;;;22.81;50.34;100358.30;103287;1319;71866;-83
2022/10/02 09:06:04;;;;;;;;;;;;;;;22.81;50.43;100362.20;103620;1317;62125;-82
2022/10/02 09:08:47;;;;;;;;;;;;;;;22.82;50.39;100360.75;103731;1317;62130;-82
2022/10/02 09:11:23;;;;;;;;;;;;;;;22.82;50.44;100357.13;103824;1317;62041;-84
2022/10/02 09:14:09;;;;;;;;;;;;;;;22.82;50.43;100359.27;103797;1317;73855;-86
2022/10/02 09:16:42;;;;;;;;;;;;;;;22.83;50.43;100355.28;103929;1316;75586;-83
2022/10/02 09:19:21;;;;;;;;;;;;;;;22.83;50.41;100358.49;104164;1311;61963;-84
2022/10/02 09:21:54;;;;;;;;;;;;;;;22.83;50.31;100353.95;104333;1311;63247;-83
2022/10/02 09:24:32;;;;;;;;;;;;;;;22.83;50.26;100360.10;104393;1311;73875;-83
2022/10/02 09:27:07;;;;;;;;;;;;;;;22.83;50.19;100362.77;104433;1311;76604;-83
2022/10/02 09:29:51;;;;;;;;;;;;;;;22.84;50.12;100365.39;104408;1311;62095;-84
2022/10/02 09:32:20;;;;;;;;;;;;;;;22.83;50.02;100362.21;104416;1311;62113;-82
2022/10/02 09:34:50;;;;;;;;;;;;;;;22.83;49.97;100363.30;104379;1311;74471;-84
2022/10/02 09:37:34;;;;;;;;;;;;;;;22.84;49.88;100366.48;104362;1310;75657;-83
2022/10/02 09:40:07;;;;;;;;;;;;;;;22.84;49.78;100366.65;104376;1311;61988;-82
2022/10/02 09:42:51;;;;;;;;;;;;;;;22.83;49.80;100372.29;104356;1311;62299;-84
2022/10/02 09:45:17;;;;;;;;;;;;;;;22.84;49.67;100376.73;104455;1311;72857;-85
2022/10/02 09:48:03;;;;;;;;;;;;;;;22.83;49.59;100385.38;104355;1311;62121;-83
2022/10/02 09:50:48;;;;;;;;;;;;;;;22.83;49.66;100381.97;104336;1311;62122;-83
2022/10/02 09:53:29;;;;;;;;;;;;;;;22.84;49.62;100376.16;104481;1311;62077;-85
2022/10/02 09:56:14;;;;;;;;;;;;;;;22.84;49.47;100375.48;104351;1311;73481;-82
2022/10/02 09:59:18;;;;;;;;;;;;;;;22.83;49.46;100377.46;104353;1311;76604;-84
2022/10/02 10:02:02;;;;;;;;;;;;;;;22.83;49.38;100379.79;103641;1316;595316;-83
2022/10/02 10:04:30;;;;;;;;;;;;;;;22.84;49.48;100380.86;103956;1317;62462;-83
2022/10/02 10:07:11;;;;;;;;;;;;;;;22.83;49.31;100386.42;103826;1317;72804;-83
2022/10/02 10:09:51;;;;;;;;;;;;;;;22.84;49.34;100391.07;103846;1316;75547;-85
2022/10/02 10:12:26;;;;;;;;;;;;;;;22.83;49.23;100390.02;104062;1317;62327;-84
2022/10/02 10:15:12;;;;;;;;;;;;;;;22.84;49.18;100390.19;103858;1317;62042;-83
2022/10/02 10:17:59;;;;;;;;;;;;;;;22.83;49.22;100390.39;104078;1316;72973;-83
2022/10/02 10:20:35;;;;;;;;;;;;;;;22.84;49.23;100388.38;103049;1323;75520;-83
2022/10/02 10:23:19;;;;;;;;;;;;;;;22.83;49.13;100391.63;103081;1323;62116;-83
2022/10/02 10:25:49;;;;;;;;;;;;;;;22.84;49.30;100391.60;103002;1323;60694;-82
2022/10/02 10:28:52;;;;;;;;;;;;;;;22.84;49.27;100393.38;103050;1324;72100;-82
2022/10/02 10:31:36;;;;;;;;;;;;;;;22.83;49.16;100393.27;102571;1332;75904;-84
2022/10/02 10:34:20;;;;;;;;;;;;;;;22.83;49.08;100400.98;102955;1325;63346;-84
2022/10/02 10:39:57;;;;;;;;;;;;;;;22.83;49.35;100402.59;102992;1325;74087;-84
2022/10/02 10:42:25;;;;;;;;;;;;;;;22.83;49.21;100404.77;102967;1323;75663;-83
2022/10/02 10:45:09;;;;;;;;;;;;;;;22.83;49.25;100402.96;102871;1323;60699;-83
2022/10/02 10:47:35;;;;;;;;;;;;;;;22.83;49.24;100403.20;103005;1323;61952;-84
2022/10/02 10:50:03;;;;;;;;;;;;;;;22.83;49.28;100400.44;103062;1322;62131;-84
2022/10/02 10:52:44;;;;;;;;;;;;;;;22.83;49.27;100389.38;103011;1323;75659;-84
2022/10/02 10:55:11;;;;;;;;;;;;;;;22.83;48.96;100392.94;103065;1323;62350;-83
2022/10/02 10:57:43;;;;;;;;;;;;;;;22.82;49.17;100398.20;103186;1317;62065;-81
2022/10/02 11:00:11;;;;;;;;;;;;;;;22.83;49.23;100400.30;104067;1317;72948;-84
2022/10/02 11:02:42;;;;;;;;;;;;;;;22.82;49.08;100406.08;104107;1316;75595;-84
2022/10/02 11:05:34;;;;;;;;;;;;;;;22.82;49.15;100408.05;104048;1309;61970;-83
2022/10/02 11:08:05;;;;;;;;;;;;;;;22.82;49.11;100408.05;104107;1317;61955;-83
2022/10/02 11:10:33;;;;;;;;;;;;;;;22.82;49.15;100406.83;103865;1317;73323;-84
2022/10/02 11:13:02;;;;;;;;;;;;;;;22.82;49.09;100404.11;103943;1317;76578;-84
2022/10/02 11:15:43;;;;;;;;;;;;;;;22.82;49.06;100405.38;104088;1316;62211;-85
2022/10/02 11:18:13;;;;;;;;;;;;;;;22.82;48.97;100406.98;103872;1317;62200;-83
2022/10/02 11:20:49;;;;;;;;;;;;;;;22.82;48.96;100408.42;103844;1317;71565;-84
2022/10/02 11:23:27;;;;;;;;;;;;;;;22.82;48.89;100410.02;103986;1316;76639;-85
2022/10/02 11:26:12;;;;;;;;;;;;;;;22.82;48.85;100405.56;104089;1316;62144;-84
2022/10/02 11:28:59;;;;;;;;;;;;;;;22.82;48.82;100402.31;103988;1316;62019;-84
2022/10/02 11:31:36;;;;;;;;;;;;;;;22.82;48.89;100412.17;103847;1317;73876;-82
2022/10/02 11:34:18;;;;;;;;;;;;;;;22.83;48.80;100421.29;104067;1316;74537;-83
2022/10/02 11:37:04;;;;;;;;;;;;;;;22.83;48.77;100422.17;104102;1316;62248;-84
2022/10/02 11:39:45;;;;;;;;;;;;;;;22.84;48.74;100428.04;104081;1316;62227;-84
2022/10/02 11:42:24;;;;;;;;;;;;;;;22.84;48.71;100430.16;103839;1317;73851;-82
2022/10/02 11:45:03;;;;;;;;;;;;;;;22.85;48.66;100434.41;104291;1310;75667;-82
2022/10/02 11:47:40;;;;;;;;;;;;;;;22.85;48.60;100431.36;104618;1309;62045;-84
2022/10/02 11:50:24;;;;;;;;;;;;;;;22.85;48.55;100435.64;104501;1309;62140;-82
2022/10/02 11:53:05;;;;;;;;;;;;;;;22.86;48.41;100436.13;104474;1311;73340;-82
2022/10/02 11:55:37;;;;;;;;;;;;;;;22.86;48.39;100434.09;104494;1310;75624;-84
2022/10/02 11:58:08;;;;;;;;;;;;;;;22.87;48.31;100437.23;104493;1311;62009;-83
2022/10/02 12:00:54;;;;;;;;;;;;;;;22.87;48.22;100435.96;104497;1311;62187;-83
2022/10/02 12:03:35;;;;;;;;;;;;;;;22.87;48.09;100437.58;104498;1309;73670;-84
2022/10/02 12:06:19;;;;;;;;;;;;;;;22.87;48.02;100440.63;104474;1310;74792;-82
2022/10/02 12:09:00;;;;;;;;;;;;;;;22.89;47.94;100441.61;104471;1311;61964;-82
2022/10/02 12:11:44;;;;;;;;;;;;;;;22.88;47.81;100439.85;104500;1311;62138;-83
2022/10/02 12:14:17;;;;;;;;;;;;;;;22.89;47.73;100434.25;104464;1311;72869;-84
2022/10/02 12:17:04;;;;;;;;;;;;;;;22.89;47.72;100439.44;104470;1311;76734;-82
2022/10/02 12:26:57;;;;;;;;;;;;;;;22.89;47.68;100436.20;104483;1311;61989;-84
2022/10/02 12:28:18;;;;;;;;;;;;;;;22.89;47.54;100444.63;104476;1310;76609;-83
2022/10/02 12:30:47;;;;;;;;;;;;;;;22.89;47.34;100448.17;104471;1310;62201;-83
2022/10/02 12:33:26;;;;;;;;;;;;;;;22.90;47.34;100450.86;104517;1311;61967;-83
2022/10/02 12:36:10;;;;;;;;;;;;;;;22.89;47.26;100451.77;104501;1311;72151;-85
2022/10/02 12:38:46;;;;;;;;;;;;;;;22.90;47.18;100446.53;104476;1311;76617;-84
2022/10/02 12:41:44;;;;;;;;;;;;;;;22.89;47.13;100442.05;104510;1309;62041;-84
2022/10/02 12:44:30;;;;;;;;;;;;;;;22.90;47.06;100443.98;104171;1312;62183;-86
2022/10/02 12:46:59;;;;;;;;;;;;;;;22.90;46.93;100448.09;104469;1310;73999;-84
2022/10/02 12:49:32;;;;;;;;;;;;;;;22.90;46.88;100443.41;104469;1311;76621;-83
2022/10/02 12:51:58;;;;;;;;;;;;;;;22.91;46.78;100450.39;104507;1311;61994;-83
2022/10/02 12:54:39;;;;;;;;;;;;;;;22.91;46.83;100451.30;104497;1310;62097;-85
2022/10/02 12:57:05;;;;;;;;;;;;;;;22.91;46.63;100453.59;104468;1311;73835;-82
2022/10/02 12:59:49;;;;;;;;;;;;;;;22.91;46.56;100454.30;104453;1310;62197;-84
2022/10/02 13:02:25;;;;;;;;;;;;;;;22.91;46.52;100452.88;104508;1311;61942;-84
2022/10/02 13:05:06;;;;;;;;;;;;;;;22.91;46.40;100451.96;104509;1310;62075;-82
2022/10/02 13:07:36;;;;;;;;;;;;;;;22.91;46.38;100459.88;104471;1311;73227;-83
2022/10/02 13:10:28;;;;;;;;;;;;;;;22.91;46.28;100461.33;104493;1311;75621;-86
2022/10/02 13:13:07;;;;;;;;;;;;;;;22.91;46.23;100461.47;104507;1310;62272;-83